Time;durP1;ratioP1;P1;durP2;ratioP2;P2;SDS_P1;SDS_P2;PMS_P1;PMS_P2;Temp;Humidity;BMP_temperature;BMP_pressure;BME280_temperature;BME280_humidity;BME280_pressure;Samples;Min_cycle;Max_cycle;Signal;HPM_P1;HPM_P2
2021/03/02 00:02:18;;;;;;;;;52.75;41.25;;;;;27.88;52.58;99074.78;4966819;28;10142;-67
2021/03/02 00:04:47;;;;;;;;;49.25;42.25;;;;;27.87;52.98;99069.72;4965554;28;10173;-69
2021/03/02 00:07:17;;;;;;;;;57.75;44.75;;;;;27.93;53.96;99085.28;4963670;28;10944;-69
2021/03/02 00:09:46;;;;;;;;;58.00;45.75;;;;;27.96;53.91;99091.91;4965042;28;10941;-69
2021/03/02 00:12:27;;;;;;;;;57.50;45.50;;;;;27.98;52.67;99091.53;4962910;28;10640;-68
2021/03/02 00:14:56;;;;;;;;;55.75;44.75;;;;;27.99;52.01;99085.72;4964222;28;10339;-68
2021/03/02 00:17:50;;;;;;;;;56.75;44.25;;;;;28.00;52.74;99091.94;4961466;28;10386;-69
2021/03/02 00:20:20;;;;;;;;;49.50;42.00;;;;;28.00;53.15;99098.13;4960389;28;10434;-69
2021/03/02 00:22:57;;;;;;;;;53.00;42.00;;;;;28.02;52.75;99100.47;4959378;28;10365;-69
2021/03/02 00:25:36;;;;;;;;;50.25;41.75;;;;;28.03;52.02;99108.22;4965883;28;10510;-69
2021/03/02 00:28:09;;;;;;;;;60.00;47.00;;;;;28.00;52.03;99102.78;4964786;28;10482;-69
2021/03/02 00:30:39;;;;;;;;;51.50;41.50;;;;;27.97;51.24;99107.00;4964277;28;10404;-69
2021/03/02 00:33:11;;;;;;;;;57.75;44.50;;;;;27.99;51.58;99109.34;4958934;28;11165;-70
2021/03/02 00:35:41;;;;;;;;;43.25;37.00;;;;;27.96;51.91;99102.75;4962631;28;10590;-70
2021/03/02 00:38:10;;;;;;;;;51.00;41.75;;;;;27.95;51.78;99112.03;4963263;28;10511;-69
2021/03/02 00:40:38;;;;;;;;;62.50;46.50;;;;;27.90;52.73;99104.22;4970553;28;11455;-69
2021/03/02 00:43:08;;;;;;;;;52.25;41.00;;;;;27.90;52.14;99109.66;4963551;28;10823;-69
2021/03/02 00:45:37;;;;;;;;;51.50;39.50;;;;;27.90;52.80;99115.84;4962760;28;10374;-69
2021/03/02 00:48:06;;;;;;;;;48.50;40.50;;;;;27.93;52.51;99122.47;4964073;28;10103;-74
2021/03/02 00:50:34;;;;;;;;;58.25;45.25;;;;;27.98;52.34;99124.06;4964180;28;10416;-73
2021/03/02 00:53:04;;;;;;;;;47.00;36.75;;;;;28.01;52.24;99132.22;4954350;28;10836;-71
2021/03/02 00:55:33;;;;;;;;;51.25;40.50;;;;;27.89;52.14;99114.31;4960025;28;10687;-72
2021/03/02 00:58:02;;;;;;;;;52.25;42.50;;;;;28.03;52.14;99142.69;4964810;28;10455;-72
2021/03/02 01:00:30;;;;;;;;;62.00;48.00;;;;;28.06;52.05;99145.44;4958436;28;10496;-72
2021/03/02 01:02:59;;;;;;;;;58.00;47.00;;;;;28.07;53.22;99152.44;4955477;28;10849;-73
2021/03/02 01:05:28;;;;;;;;;64.25;49.25;;;;;28.03;54.24;99143.47;4959812;28;11409;-75
2021/03/02 01:07:57;;;;;;;;;66.25;51.00;;;;;28.07;55.02;99147.00;4958547;28;11666;-74
2021/03/02 01:10:25;;;;;;;;;64.75;50.00;;;;;28.07;54.49;99140.81;4951950;28;12428;-73
2021/03/02 01:13:13;;;;;;;;;68.25;52.50;;;;;28.19;54.83;99156.81;4961125;28;11616;-74
2021/03/02 01:15:42;;;;;;;;;64.75;50.75;;;;;28.22;54.00;99153.38;4959813;28;11752;-74
2021/03/02 01:18:10;;;;;;;;;62.25;49.00;;;;;28.32;54.02;99160.03;4958892;28;11342;-73
2021/03/02 01:20:40;;;;;;;;;65.00;48.25;;;;;28.43;53.03;99169.06;4954836;28;11145;-75
2021/03/02 01:23:09;;;;;;;;;59.25;47.50;;;;;28.47;52.41;99170.63;4957815;28;11088;-74
2021/03/02 01:25:38;;;;;;;;;51.25;42.75;;;;;28.55;52.36;99172.25;4951899;28;10952;-71
2021/03/02 01:28:06;;;;;;;;;52.50;41.25;;;;;28.57;51.93;99164.53;4953561;28;10525;-71
2021/03/02 01:30:35;;;;;;;;;47.50;40.50;;;;;28.64;51.39;99166.47;4952618;28;10083;-70
2021/03/02 01:33:05;;;;;;;;;49.25;41.00;;;;;28.71;50.90;99174.66;4953535;28;10234;-71
2021/03/02 01:35:34;;;;;;;;;46.50;39.25;;;;;28.69;50.57;99174.28;4953892;28;9991;-71
2021/03/02 01:38:04;;;;;;;;;43.00;36.50;;;;;28.76;50.15;99168.88;4955075;28;9929;-71
2021/03/02 01:40:33;;;;;;;;;37.50;34.50;;;;;28.79;50.37;99178.22;4955151;28;10416;-70
2021/03/02 01:43:02;;;;;;;;;43.00;36.25;;;;;28.89;50.27;99182.97;4953710;28;10302;-71
2021/03/02 01:45:30;;;;;;;;;50.25;41.25;;;;;28.89;49.63;99185.69;4954225;28;9756;-71
2021/03/02 01:47:59;;;;;;;;;44.00;38.25;;;;;28.97;49.99;99198.16;4954395;28;9943;-71
2021/03/02 01:50:28;;;;;;;;;39.50;33.25;;;;;29.01;49.57;99195.47;4964514;28;9780;-75
2021/03/02 01:52:57;;;;;;;;;46.50;38.00;;;;;29.03;49.63;99188.50;4963926;28;9645;-72
2021/03/02 01:55:26;;;;;;;;;42.75;37.25;;;;;29.07;49.76;99186.56;4962778;28;9719;-71
2021/03/02 01:57:54;;;;;;;;;44.75;38.25;;;;;29.11;49.40;99192.81;4961726;28;9553;-71
2021/03/02 02:00:35;;;;;;;;;50.50;40.25;;;;;29.20;49.76;99195.97;4961851;28;9636;-71
2021/03/02 02:03:24;;;;;;;;;46.75;39.75;;;;;29.27;49.79;99194.44;4957610;28;9954;-70
2021/03/02 02:06:13;;;;;;;;;46.50;36.50;;;;;29.30;49.61;99191.75;4960271;28;9597;-71
2021/03/02 02:09:02;;;;;;;;;51.00;40.00;;;;;29.41;49.15;99202.66;4961715;28;9712;-71
2021/03/02 02:11:49;;;;;;;;;49.00;39.75;;;;;29.45;48.79;99200.78;4961786;28;9841;-72
2021/03/02 02:14:34;;;;;;;;;45.00;38.75;;;;;29.49;48.15;99205.06;4955761;28;9651;-71
2021/03/02 02:17:06;;;;;;;;;49.00;40.50;;;;;29.46;48.39;99186.81;4961740;28;9836;-70
2021/03/02 02:19:47;;;;;;;;;49.50;41.50;;;;;29.59;48.16;99206.28;4959970;28;9725;-70
2021/03/02 02:22:28;;;;;;;;;49.00;41.00;;;;;29.60;47.78;99196.19;4958927;28;9469;-70
2021/03/02 02:24:56;;;;;;;;;46.50;39.75;;;;;29.72;48.08;99204.78;4961232;28;9571;-72
2021/03/02 02:27:30;;;;;;;;;46.50;39.50;;;;;29.76;47.92;99202.84;4963269;28;10080;-70
2021/03/02 02:30:01;;;;;;;;;50.50;42.25;;;;;29.80;47.88;99202.84;4961344;28;10065;-70
2021/03/02 02:32:31;;;;;;;;;47.50;40.75;;;;;29.84;47.71;99209.06;4961377;28;9742;-71
2021/03/02 02:35:02;;;;;;;;;50.00;40.50;;;;;29.79;47.84;99202.06;4961831;28;9889;-71
2021/03/02 02:37:32;;;;;;;;;52.25;42.25;;;;;29.93;47.62;99205.97;4963113;28;9851;-71
2021/03/02 02:40:03;;;;;;;;;50.00;41.00;;;;;29.95;47.87;99207.13;4962629;28;9796;-70
2021/03/02 02:42:33;;;;;;;;;52.25;44.00;;;;;29.99;47.87;99209.88;4958574;28;9871;-71
2021/03/02 02:45:03;;;;;;;;;45.00;38.50;;;;;30.03;47.40;99207.97;4961536;28;10065;-71
2021/03/02 02:47:32;;;;;;;;;53.50;44.50;;;;;30.06;48.20;99213.41;4962555;28;10512;-71
2021/03/02 02:50:01;;;;;;;;;51.00;42.00;;;;;30.10;47.61;99211.47;4962722;28;9942;-71
2021/03/02 02:52:30;;;;;;;;;57.00;47.25;;;;;30.13;47.99;99213.44;4958668;28;10575;-71
2021/03/02 02:55:02;;;;;;;;;52.00;43.75;;;;;30.14;47.75;99217.72;4957171;28;9828;-70
2021/03/02 02:57:34;;;;;;;;;50.25;42.00;;;;;30.21;47.77;99210.72;4960408;28;9898;-70
2021/03/02 03:00:04;;;;;;;;;50.25;41.25;;;;;30.26;47.42;99207.63;4960177;28;10003;-71
2021/03/02 03:02:36;;;;;;;;;47.00;40.00;;;;;30.29;47.25;99215.00;4958182;28;9774;-71
2021/03/02 03:05:16;;;;;;;;;46.00;39.25;;;;;30.37;47.44;99203.75;4961140;28;9735;-71
2021/03/02 03:08:09;;;;;;;;;32.25;32.00;;;;;30.45;47.06;99218.13;4958131;28;9677;-71
2021/03/02 03:10:39;;;;;;;;;59.00;46.75;;;;;30.50;46.88;99207.63;4961529;28;10015;-71
2021/03/02 03:13:10;;;;;;;;;51.25;43.25;;;;;30.57;46.56;99211.53;4960445;28;9964;-72
2021/03/02 03:15:45;;;;;;;;;44.00;38.00;;;;;30.58;46.75;99211.16;4954092;28;9841;-71
2021/03/02 03:18:19;;;;;;;;;52.00;44.00;;;;;30.60;46.87;99205.34;4953260;28;10249;-72
2021/03/02 03:20:51;;;;;;;;;49.75;42.50;;;;;30.63;46.38;99205.34;4953364;28;9938;-71
2021/03/02 03:23:20;;;;;;;;;53.00;44.25;;;;;30.72;46.92;99213.88;4953005;28;10608;-70
2021/03/02 03:25:51;;;;;;;;;52.50;43.50;;;;;30.78;47.06;99206.09;4952740;28;9573;-70
2021/03/02 03:28:22;;;;;;;;;52.00;42.25;;;;;30.83;46.92;99195.59;4952692;28;10153;-71
2021/03/02 03:30:51;;;;;;;;;51.25;42.00;;;;;30.87;46.44;99197.53;4952139;28;9818;-71
2021/03/02 03:33:20;;;;;;;;;52.50;44.50;;;;;30.91;46.95;99190.13;4959863;28;9643;-71
2021/03/02 03:35:51;;;;;;;;;50.25;41.25;;;;;30.97;46.78;99178.44;4960767;28;10378;-72
2021/03/02 03:38:19;;;;;;;;;52.75;43.75;;;;;31.01;46.34;99178.44;4959941;28;9743;-71
2021/03/02 03:40:48;;;;;;;;;52.33;43.33;;;;;31.03;46.33;99173.38;4961565;28;9713;-71
2021/03/02 03:43:16;;;;;;;;;45.33;39.00;;;;;31.08;46.11;99181.91;4961891;28;10382;-71
2021/03/02 03:45:45;;;;;;;;;36.33;33.00;;;;;31.11;45.69;99170.22;4958112;28;9293;-71
2021/03/02 03:48:13;;;;;;;;;46.00;39.33;;;;;31.20;45.63;99172.56;4957274;28;9358;-72
2021/03/02 03:50:42;;;;;;;;;43.67;37.00;;;;;31.23;45.57;99169.03;4961210;28;9329;-71
2021/03/02 03:53:15;;;;;;;;;44.67;37.67;;;;;31.27;45.31;99171.75;4959187;28;9023;-72
2021/03/02 03:55:45;;;;;;;;;50.67;43.00;;;;;31.24;45.88;99158.91;4955923;28;9102;-71
2021/03/02 03:58:26;;;;;;;;;43.33;38.00;;;;;31.32;45.39;99160.44;4959933;28;9293;-70
2021/03/02 04:00:55;;;;;;;;;47.33;38.00;;;;;31.37;45.58;99149.13;4962911;28;9113;-70
2021/03/02 04:03:27;;;;;;;;;45.00;38.67;;;;;31.36;45.62;99132.00;4960430;28;9219;-70
2021/03/02 04:05:58;;;;;;;;;45.00;38.33;;;;;31.54;45.06;99142.03;4960965;28;9272;-71
2021/03/02 04:08:27;;;;;;;;;48.00;38.67;;;;;31.65;45.03;99138.06;4959858;28;9108;-70
2021/03/02 04:10:58;;;;;;;;;45.67;37.33;;;;;31.72;45.11;99140.00;4963152;28;9114;-71
2021/03/02 04:13:30;;;;;;;;;44.00;37.67;;;;;31.78;45.15;99132.97;4975471;28;9259;-70
2021/03/02 04:15:59;;;;;;;;;43.67;37.67;;;;;31.88;44.95;99128.63;4964191;28;9101;-72
2021/03/02 04:18:29;;;;;;;;;42.33;36.33;;;;;31.97;44.96;99128.94;4962793;28;9116;-71
2021/03/02 04:20:59;;;;;;;;;41.00;35.67;;;;;32.05;44.76;99122.25;4964864;28;9113;-71
2021/03/02 04:23:28;;;;;;;;;39.00;35.00;;;;;32.05;44.44;99105.88;4961743;28;9032;-71
2021/03/02 04:25:56;;;;;;;;;37.00;34.25;;;;;32.16;44.82;99106.56;4968005;28;9128;-71
2021/03/02 04:28:25;;;;;;;;;31.50;30.75;;;;;32.15;43.96;99109.72;4966632;28;9129;-71
2021/03/02 04:30:54;;;;;;;;;32.00;31.00;;;;;32.13;44.04;99110.09;4965233;28;8944;-70
2021/03/02 04:33:22;;;;;;;;;36.50;33.50;;;;;32.14;44.37;99117.13;4962654;28;8850;-76
2021/03/02 04:35:51;;;;;;;;;36.25;33.50;;;;;32.18;44.17;99101.50;4979067;28;8851;-71
2021/03/02 04:38:19;;;;;;;;;37.50;34.75;;;;;32.24;44.53;99094.44;4962499;28;8873;-70
2021/03/02 04:40:48;;;;;;;;;28.00;28.00;;;;;32.32;43.76;99095.16;4971956;28;8867;-70
2021/03/02 04:43:16;;;;;;;;;26.00;26.00;;;;;32.40;43.83;99097.44;4972098;28;8838;-69
2021/03/02 04:45:54;;;;;;;;;27.00;24.75;;;;;32.52;43.70;99087.16;4970843;28;9614;-69
2021/03/02 04:48:23;;;;;;;;;32.75;28.75;;;;;32.63;43.46;99083.13;4958286;28;8938;-70
2021/03/02 04:50:51;;;;;;;;;24.50;24.50;;;;;32.73;43.54;99076.00;4965396;28;8864;-71
2021/03/02 04:53:20;;;;;;;;;32.00;31.50;;;;;32.84;42.92;99065.75;4963787;28;8876;-71
2021/03/02 04:55:48;;;;;;;;;29.25;29.25;;;;;32.82;42.79;99050.94;4964582;28;8850;-69
2021/03/02 04:58:17;;;;;;;;;29.00;29.00;;;;;32.84;42.85;99043.13;4965636;28;8964;-69
2021/03/02 05:00:46;;;;;;;;;35.75;33.00;;;;;32.77;43.57;99033.03;4964602;28;8970;-69
2021/03/02 05:03:15;;;;;;;;;29.00;29.00;;;;;32.85;42.74;99048.16;4961573;28;8995;-70
2021/03/02 05:05:43;;;;;;;;;30.25;29.50;;;;;32.79;43.18;99046.31;4958600;28;9007;-71
2021/03/02 05:08:12;;;;;;;;;29.50;29.25;;;;;32.76;43.36;99042.44;4964362;28;8872;-70
2021/03/02 05:10:40;;;;;;;;;32.75;32.25;;;;;32.70;43.08;99044.03;4956889;28;8884;-70
2021/03/02 05:13:09;;;;;;;;;37.50;34.50;;;;;32.66;43.88;99026.91;4961565;28;8849;-70
2021/03/02 05:15:43;;;;;;;;;32.00;31.75;;;;;32.63;43.49;99033.19;4957516;28;8855;-70
2021/03/02 05:18:12;;;;;;;;;32.75;31.50;;;;;32.55;43.47;99028.97;4960495;28;8950;-71
2021/03/02 05:20:51;;;;;;;;;31.75;31.25;;;;;32.50;43.46;99016.56;4960703;28;8866;-70
2021/03/02 05:23:21;;;;;;;;;25.75;25.75;;;;;32.49;43.21;99003.31;4959159;28;8873;-70
2021/03/02 05:25:50;;;;;;;;;35.75;34.25;;;;;32.42;43.66;98996.00;4957631;28;8868;-70
2021/03/02 05:28:19;;;;;;;;;30.00;29.50;;;;;32.45;42.85;98999.88;4958041;28;8938;-71
2021/03/02 05:30:47;;;;;;;;;28.00;28.00;;;;;32.41;42.62;98989.75;4944616;28;8828;-70
2021/03/02 05:33:16;;;;;;;;;28.25;28.25;;;;;32.42;43.32;98990.53;4958258;28;8981;-71
2021/03/02 05:35:45;;;;;;;;;23.75;23.75;;;;;32.42;43.46;98983.13;4949653;28;8887;-70
2021/03/02 05:38:13;;;;;;;;;22.00;22.00;;;;;32.38;43.15;98981.59;4943305;28;9016;-70
2021/03/02 05:40:42;;;;;;;;;25.50;25.25;;;;;32.33;42.32;98969.16;4953123;28;8873;-70
2021/03/02 05:43:16;;;;;;;;;31.50;30.25;;;;;32.36;42.91;98968.34;4959901;28;8861;-70
2021/03/02 05:45:45;;;;;;;;;35.50;32.50;;;;;32.45;43.21;98972.56;4958227;28;8887;-72
2021/03/02 05:48:15;;;;;;;;;30.25;29.00;;;;;32.49;42.20;98968.59;4959745;28;8837;-71
2021/03/02 05:50:43;;;;;;;;;34.50;31.25;;;;;32.59;42.16;98956.75;4956041;28;8858;-69
2021/03/02 05:53:13;;;;;;;;;31.50;29.50;;;;;32.77;42.14;98958.50;4955169;28;8866;-71
2021/03/02 05:55:42;;;;;;;;;27.00;27.00;;;;;32.93;41.41;98947.75;4957426;28;8890;-72
2021/03/02 05:58:11;;;;;;;;;25.25;25.25;;;;;33.04;41.71;98938.22;4956363;28;8872;-71
2021/03/02 06:00:40;;;;;;;;;26.00;26.00;;;;;33.10;41.69;98927.59;4948293;28;9007;-69
2021/03/02 06:03:09;;;;;;;;;31.00;29.75;;;;;33.12;41.65;98919.75;4939854;28;8876;-71
2021/03/02 06:05:38;;;;;;;;;30.75;28.50;;;;;33.16;41.38;98930.63;4936726;28;8877;-70
2021/03/02 06:08:09;;;;;;;;;21.25;21.25;;;;;33.17;42.32;98924.75;4951539;28;8864;-73
2021/03/02 06:10:38;;;;;;;;;29.75;26.50;;;;;33.15;41.81;98923.63;4953483;28;8871;-73
2021/03/02 06:13:07;;;;;;;;;28.75;28.75;;;;;33.08;42.23;98899.91;4940407;28;8891;-71
2021/03/02 06:15:51;;;;;;;;;31.50;31.00;;;;;33.14;42.05;98913.88;4944794;28;8867;-71
2021/03/02 06:18:20;;;;;;;;;27.00;27.00;;;;;33.07;41.83;98910.06;4933463;29;8887;-71
2021/03/02 06:20:50;;;;;;;;;34.00;33.00;;;;;33.01;41.87;98903.50;4948672;29;8871;-71
2021/03/02 06:23:29;;;;;;;;;20.00;20.00;;;;;32.98;41.97;98900.84;4947259;28;8856;-72
2021/03/02 06:26:24;;;;;;;;;28.50;28.50;;;;;32.93;42.35;98887.63;4950412;28;8886;-69
2021/03/02 06:28:58;;;;;;;;;27.75;26.00;;;;;32.93;42.22;98884.91;4956365;28;8872;-74
2021/03/02 06:31:47;;;;;;;;;27.00;26.50;;;;;32.91;41.74;98881.81;4965017;28;8864;-71
2021/03/02 06:34:20;;;;;;;;;29.75;29.75;;;;;32.93;42.05;98871.25;4957728;28;8890;-72
2021/03/02 06:36:58;;;;;;;;;27.00;27.00;;;;;32.97;42.23;98870.00;4955078;28;9679;-75
2021/03/02 06:39:39;;;;;;;;;27.00;27.00;;;;;33.05;42.37;98863.25;4970705;28;8868;-70
2021/03/02 06:42:21;;;;;;;;;26.75;26.75;;;;;33.12;41.95;98861.56;4949172;28;8942;-71
2021/03/02 06:44:53;;;;;;;;;26.25;26.25;;;;;33.15;41.80;98849.81;4952896;28;8864;-73
2021/03/02 06:47:39;;;;;;;;;24.50;24.50;;;;;33.30;42.12;98834.75;4956620;28;8872;-76
2021/03/02 06:50:12;;;;;;;;;26.50;25.25;;;;;33.38;41.81;98841.63;4946700;28;8906;-71
2021/03/02 06:52:45;;;;;;;;;27.25;25.75;;;;;33.43;41.76;98832.19;4952726;28;8878;-74
2021/03/02 06:55:16;;;;;;;;;18.50;18.50;;;;;33.44;41.62;98834.50;4954817;28;8903;-70
2021/03/02 06:57:47;;;;;;;;;27.25;27.25;;;;;33.46;41.45;98834.09;4957168;28;8862;-71
2021/03/02 07:00:30;;;;;;;;;29.75;28.50;;;;;33.51;40.82;98836.34;4954167;28;8868;-72
2021/03/02 07:02:58;;;;;;;;;26.25;26.25;;;;;33.66;40.96;98830.19;4950877;28;8874;-70
2021/03/02 07:05:27;;;;;;;;;24.50;24.00;;;;;33.79;41.51;98818.63;4950624;28;8871;-74
2021/03/02 07:07:56;;;;;;;;;26.00;26.00;;;;;33.90;40.58;98817.22;4951818;28;9597;-70
2021/03/02 07:10:25;;;;;;;;;22.75;22.75;;;;;33.86;41.00;98800.09;4954048;28;8857;-73
2021/03/02 07:12:55;;;;;;;;;25.50;25.50;;;;;34.00;40.51;98816.22;4958766;28;8821;-71
2021/03/02 07:15:24;;;;;;;;;21.00;19.50;;;;;34.09;41.33;98812.91;4958113;28;8864;-72
2021/03/02 07:17:54;;;;;;;;;35.00;29.50;;;;;34.13;41.46;98805.41;4946382;28;8863;-74
2021/03/02 07:20:24;;;;;;;;;27.25;26.50;;;;;34.15;40.70;98800.28;4947511;28;8947;-76
2021/03/02 07:23:01;;;;;;;;;24.75;24.75;;;;;34.08;39.79;98799.66;4966146;28;8934;-73
2021/03/02 07:25:29;;;;;;;;;25.50;24.75;;;;;34.06;39.97;98797.34;4963091;28;8853;-73
2021/03/02 07:28:02;;;;;;;;;26.00;26.00;;;;;34.12;40.48;98783.94;4956917;28;8856;-71
2021/03/02 07:30:31;;;;;;;;;28.25;28.25;;;;;34.26;38.80;98783.63;4960272;28;8887;-72
2021/03/02 07:33:02;;;;;;;;;27.50;26.50;;;;;34.39;39.97;98775.53;4962467;28;8865;-72
2021/03/02 07:35:31;;;;;;;;;28.00;28.00;;;;;34.45;39.76;98769.13;4969453;28;8868;-73
2021/03/02 07:38:20;;;;;;;;;27.25;27.25;;;;;34.67;39.01;98763.94;4964157;28;8923;-71
2021/03/02 07:40:54;;;;;;;;;31.25;29.75;;;;;34.80;39.30;98764.00;4964112;28;8852;-71
2021/03/02 07:43:26;;;;;;;;;27.50;26.25;;;;;34.90;39.38;98752.81;4960855;28;9590;-71
2021/03/02 07:45:56;;;;;;;;;21.50;21.50;;;;;34.97;39.89;98758.13;4975312;28;9607;-71
2021/03/02 07:48:37;;;;;;;;;25.00;25.00;;;;;34.95;38.97;98757.78;4973763;28;8976;-71
2021/03/02 07:51:24;;;;;;;;;20.50;20.50;;;;;34.89;38.75;98753.25;4975475;28;8985;-71
2021/03/02 07:54:12;;;;;;;;;29.50;29.50;;;;;34.77;39.99;98742.94;4965559;28;8852;-71
2021/03/02 07:56:41;;;;;;;;;25.00;25.00;;;;;34.65;39.95;98741.66;4969295;28;8857;-71
2021/03/02 07:59:12;;;;;;;;;27.25;27.00;;;;;34.52;39.93;98735.31;4961139;28;9541;-72
2021/03/02 08:01:41;;;;;;;;;24.00;24.00;;;;;34.48;40.68;98726.44;4962146;28;8840;-72
2021/03/02 08:04:16;;;;;;;;;25.75;25.75;;;;;34.49;39.92;98730.69;4955955;28;8888;-73
2021/03/02 08:06:50;;;;;;;;;25.25;23.75;;;;;34.43;40.52;98729.69;4957158;28;8949;-72
2021/03/02 08:09:30;;;;;;;;;25.50;25.50;;;;;34.40;39.41;98723.09;4958964;28;8844;-74
2021/03/02 08:12:23;;;;;;;;;29.50;28.00;;;;;34.37;39.60;98725.91;4949455;28;8854;-73
2021/03/02 08:14:51;;;;;;;;;25.75;25.75;;;;;34.38;39.83;98713.75;4957352;28;8888;-73
2021/03/02 08:17:22;;;;;;;;;27.25;27.00;;;;;34.46;40.26;98712.38;4952290;28;9387;-75
2021/03/02 08:19:58;;;;;;;;;25.75;25.75;;;;;34.52;40.21;98711.44;4946333;28;8867;-73
2021/03/02 08:22:30;;;;;;;;;26.00;26.00;;;;;34.53;40.22;98709.47;4953405;28;8866;-74
2021/03/02 08:25:06;;;;;;;;;20.75;20.75;;;;;34.42;40.00;98711.69;4945393;28;9718;-73
2021/03/02 08:27:42;;;;;;;;;26.75;26.25;;;;;34.31;40.32;98709.97;4946843;28;8882;-73
2021/03/02 08:30:21;;;;;;;;;23.75;23.75;;;;;34.24;40.34;98693.69;4943650;28;8915;-72
2021/03/02 08:32:51;;;;;;;;;27.00;26.75;;;;;34.17;39.81;98696.59;4944189;28;8961;-72
2021/03/02 08:35:31;;;;;;;;;22.50;22.00;;;;;33.97;39.54;98685.69;4944474;28;8864;-73
2021/03/02 08:38:02;;;;;;;;;22.75;22.75;;;;;34.01;39.94;98696.56;4944635;28;8863;-74
2021/03/02 08:40:33;;;;;;;;;23.50;23.50;;;;;34.00;40.26;98692.28;4945474;28;8946;-72
2021/03/02 08:43:19;;;;;;;;;23.50;23.50;;;;;33.98;40.53;98689.22;4947020;28;8856;-72
2021/03/02 08:45:54;;;;;;;;;22.75;22.75;;;;;33.92;40.60;98679.97;4944778;28;8842;-73
2021/03/02 08:48:42;;;;;;;;;20.75;20.75;;;;;33.89;40.19;98686.28;4946553;28;8883;-73
2021/03/02 08:51:12;;;;;;;;;11.50;11.50;;;;;33.80;40.58;98683.34;4945943;28;8858;-72
2021/03/02 08:53:41;;;;;;;;;23.25;23.25;;;;;33.84;40.58;98693.03;4941875;28;8883;-72
2021/03/02 08:56:20;;;;;;;;;22.75;22.75;;;;;33.80;40.69;98688.81;4949650;28;8927;-73
2021/03/02 08:59:02;;;;;;;;;18.75;18.75;;;;;33.70;40.63;98672.22;4941367;28;8851;-76
2021/03/02 09:01:41;;;;;;;;;18.50;18.50;;;;;33.65;40.85;98680.91;4951569;28;8876;-74
2021/03/02 09:04:19;;;;;;;;;20.50;20.50;;;;;33.60;39.93;98684.16;4951118;28;8932;-73
2021/03/02 09:06:48;;;;;;;;;20.25;20.25;;;;;33.58;39.92;98675.59;4955185;28;8858;-76
2021/03/02 09:09:22;;;;;;;;;22.75;22.75;;;;;33.59;40.88;98670.91;4949932;28;8867;-72
2021/03/02 09:11:52;;;;;;;;;23.25;23.25;;;;;33.61;40.52;98682.97;4950317;28;8876;-72
2021/03/02 09:14:37;;;;;;;;;21.50;20.00;;;;;33.58;40.57;98669.34;4951577;28;8882;-74
2021/03/02 09:17:06;;;;;;;;;24.50;22.50;;;;;33.54;40.34;98658.50;4950232;28;9032;-72
2021/03/02 09:19:41;;;;;;;;;19.75;19.75;;;;;33.52;40.52;98651.91;4948008;28;8856;-72
2021/03/02 09:22:32;;;;;;;;;21.75;21.75;;;;;33.51;40.17;98653.09;4945420;28;8859;-73
2021/03/02 09:25:01;;;;;;;;;22.75;22.25;;;;;33.47;39.95;98661.38;4941794;28;8990;-72
2021/03/02 09:27:32;;;;;;;;;25.25;25.25;;;;;33.46;40.19;98659.84;4942404;28;8905;-73
2021/03/02 09:30:05;;;;;;;;;33.00;31.25;;;;;33.48;40.58;98660.19;4955843;28;8886;-74
2021/03/02 09:32:35;;;;;;;;;24.25;24.25;;;;;33.47;40.33;98658.63;4940343;28;8851;-74
2021/03/02 09:35:10;;;;;;;;;18.50;18.50;;;;;33.43;40.33;98652.47;4956583;28;9733;-73
2021/03/02 09:37:39;;;;;;;;;19.75;19.75;;;;;33.46;40.42;98659.06;4964032;28;8865;-70
2021/03/02 09:40:11;;;;;;;;;19.75;19.00;;;;;33.43;40.12;98657.16;4971301;28;8888;-72
2021/03/02 09:42:42;;;;;;;;;19.50;19.50;;;;;33.42;40.11;98666.56;4959118;28;8864;-73
2021/03/02 09:45:18;;;;;;;;;20.67;20.67;;;;;33.39;40.19;98665.44;4950774;28;8903;-74
2021/03/02 09:47:49;;;;;;;;;23.75;22.75;;;;;33.38;40.01;98669.38;4940061;28;8882;-73
2021/03/02 09:50:20;;;;;;;;;22.00;22.00;;;;;33.37;39.63;98667.84;4940430;28;8864;-72
2021/03/02 09:52:49;;;;;;;;;19.75;19.75;;;;;33.31;40.34;98658.56;4940163;28;8864;-76
2021/03/02 09:55:31;;;;;;;;;19.25;19.25;;;;;33.41;40.36;98671.25;4948749;28;8872;-75
2021/03/02 09:58:11;;;;;;;;;25.50;25.25;;;;;33.39;40.55;98679.88;4944528;28;8897;-72
2021/03/02 10:00:55;;;;;;;;;20.75;20.25;;;;;33.41;40.44;98679.47;4943092;28;8857;-70
2021/03/02 10:03:33;;;;;;;;;21.25;21.25;;;;;33.43;40.59;98674.34;4944914;28;8879;-70
2021/03/02 10:06:05;;;;;;;;;26.25;26.25;;;;;33.37;40.63;98676.03;4943672;28;8858;-71
2021/03/02 10:08:38;;;;;;;;;26.75;26.25;;;;;33.37;40.82;98693.22;4935553;28;8839;-73
2021/03/02 10:11:13;;;;;;;;;25.50;23.25;;;;;33.32;41.03;98684.72;4935436;29;8873;-72
2021/03/02 10:13:53;;;;;;;;;22.25;22.25;;;;;33.27;41.26;98693.38;4935274;29;8866;-73
2021/03/02 10:16:31;;;;;;;;;25.00;23.25;;;;;33.21;41.20;98695.06;4935361;29;8862;-71
2021/03/02 10:19:01;;;;;;;;;27.25;26.50;;;;;33.18;41.61;98695.91;4954761;28;8854;-72
2021/03/02 10:21:43;;;;;;;;;33.00;29.00;;;;;33.14;42.28;98700.66;4958075;28;8864;-72
2021/03/02 10:24:20;;;;;;;;;26.00;25.25;;;;;33.11;41.97;98696.81;4954469;28;8865;-72
2021/03/02 10:26:49;;;;;;;;;29.00;28.75;;;;;33.04;41.99;98683.28;4960606;28;8936;-72
2021/03/02 10:29:17;;;;;;;;;26.25;26.25;;;;;32.99;41.64;98695.47;4968860;28;8853;-72
2021/03/02 10:31:46;;;;;;;;;25.25;25.25;;;;;32.90;42.23;98700.69;4963841;28;9574;-72
2021/03/02 10:34:15;;;;;;;;;24.00;24.00;;;;;32.83;41.95;98694.59;4960883;28;8852;-71
2021/03/02 10:36:45;;;;;;;;;19.50;19.50;;;;;32.66;43.21;98688.22;4955948;28;8845;-72
2021/03/02 10:39:15;;;;;;;;;22.25;21.00;;;;;32.68;42.19;98704.94;4945842;28;8856;-71
2021/03/02 10:41:45;;;;;;;;;26.75;26.25;;;;;32.60;43.61;98692.59;4944641;28;8859;-71
2021/03/02 10:44:14;;;;;;;;;21.75;21.75;;;;;32.53;42.82;98701.69;4946578;28;8866;-72
2021/03/02 10:46:44;;;;;;;;;22.25;22.25;;;;;32.47;45.03;98695.19;4959023;28;8849;-71
2021/03/02 10:49:13;;;;;;;;;22.75;22.75;;;;;32.45;43.72;98704.97;4945442;28;8971;-71
2021/03/02 10:51:41;;;;;;;;;20.75;19.75;;;;;32.42;43.02;98698.38;4947760;28;8848;-70
2021/03/02 10:54:11;;;;;;;;;23.00;22.25;;;;;32.39;43.40;98713.63;4947485;28;8885;-71
2021/03/02 10:56:39;;;;;;;;;21.50;21.50;;;;;32.32;44.93;98719.19;4957555;28;8844;-72
2021/03/02 10:59:08;;;;;;;;;19.00;19.00;;;;;32.25;44.07;98716.56;4960971;28;8899;-70
2021/03/02 11:01:36;;;;;;;;;26.50;25.25;;;;;32.17;45.11;98714.31;4943020;28;8854;-70
2021/03/02 11:04:08;;;;;;;;;19.00;19.00;;;;;32.16;44.00;98715.50;4942624;28;8838;-70
2021/03/02 11:06:36;;;;;;;;;24.25;23.00;;;;;32.13;44.88;98711.66;4942114;28;8868;-70
2021/03/02 11:09:05;;;;;;;;;25.00;24.00;;;;;32.10;44.96;98712.47;4946615;28;8946;-70
2021/03/02 11:11:33;;;;;;;;;20.25;20.25;;;;;32.05;43.77;98712.94;4954901;28;8870;-72
2021/03/02 11:14:02;;;;;;;;;20.25;19.50;;;;;31.99;44.12;98707.16;4965408;28;8834;-70
2021/03/02 11:16:30;;;;;;;;;21.50;20.25;;;;;31.92;43.75;98709.22;4966618;28;9639;-69
2021/03/02 11:18:58;;;;;;;;;15.50;15.00;;;;;31.83;43.95;98717.91;4970246;28;8830;-69
2021/03/02 11:21:27;;;;;;;;;24.00;23.75;;;;;31.76;44.08;98720.72;4971484;28;8852;-69
2021/03/02 11:23:56;;;;;;;;;18.75;18.75;;;;;31.69;45.08;98721.56;4965676;28;9589;-70
2021/03/02 11:26:24;;;;;;;;;19.00;19.00;;;;;31.60;44.37;98710.38;4960191;28;8832;-71
2021/03/02 11:28:52;;;;;;;;;21.50;20.50;;;;;31.59;44.28;98717.00;4968282;28;8853;-70
2021/03/02 11:31:20;;;;;;;;;19.00;19.00;;;;;31.56;45.96;98717.03;4962437;28;8891;-71
2021/03/02 11:33:49;;;;;;;;;23.00;23.00;;;;;31.54;44.86;98714.72;4948423;28;8840;-71
2021/03/02 11:36:19;;;;;;;;;21.75;21.75;;;;;31.53;44.88;98724.06;4948199;28;8844;-70
2021/03/02 11:38:47;;;;;;;;;21.00;20.75;;;;;31.49;44.89;98726.06;4953979;28;8889;-70
2021/03/02 11:41:17;;;;;;;;;19.25;19.25;;;;;31.42;45.67;98732.38;4950661;28;8924;-70
2021/03/02 11:43:46;;;;;;;;;17.75;17.75;;;;;31.38;45.21;98728.16;4961689;28;8853;-70
2021/03/02 11:46:14;;;;;;;;;30.75;27.50;;;;;31.33;46.82;98723.13;4968143;28;8844;-69
2021/03/02 11:48:43;;;;;;;;;21.50;20.50;;;;;31.34;45.83;98730.91;4959822;28;8860;-70